sensor_id;sensor_type;location;lat;lon;timestamp;temperature;humidity
25741;DHT22;13592;50.838;4.412;2023-03-14T01:02:10;13.10;99.90
25741;DHT22;13592;50.838;4.412;2023-03-14T01:13:53;13.20;99.90
25741;DHT22;13592;50.838;4.412;2023-03-14T01:19:43;13.20;99.90
25741;DHT22;13592;50.838;4.412;2023-03-14T01:28:06;13.10;99.90
25741;DHT22;13592;50.838;4.412;2023-03-14T01:30:37;13.10;99.90
25741;DHT22;13592;50.838;4.412;2023-03-14T01:33:03;13.10;99.90
25741;DHT22;13592;50.838;4.412;2023-03-14T01:35:35;12.70;99.90
25741;DHT22;13592;50.838;4.412;2023-03-14T01:38:11;12.60;99.90
25741;DHT22;13592;50.838;4.412;2023-03-14T01:40:56;12.70;99.90
25741;DHT22;13592;50.838;4.412;2023-03-14T01:52:58;12.80;99.90
25741;DHT22;13592;50.838;4.412;2023-03-14T01:55:36;12.60;99.90
25741;DHT22;13592;50.838;4.412;2023-03-14T01:58:09;12.80;99.90
25741;DHT22;13592;50.838;4.412;2023-03-14T02:03:17;12.70;99.90
25741;DHT22;13592;50.838;4.412;2023-03-14T02:05:49;12.70;99.90
25741;DHT22;13592;50.838;4.412;2023-03-14T02:11:17;12.50;99.90
25741;DHT22;13592;50.838;4.412;2023-03-14T02:13:44;12.20;99.90
25741;DHT22;13592;50.838;4.412;2023-03-14T02:16:24;12.30;99.90
25741;DHT22;13592;50.838;4.412;2023-03-14T02:18:53;12.10;99.90
25741;DHT22;13592;50.838;4.412;2023-03-14T02:24:20;12.00;99.90
25741;DHT22;13592;50.838;4.412;2023-03-14T02:32:43;11.80;99.90
25741;DHT22;13592;50.838;4.412;2023-03-14T02:41:31;11.80;99.90
25741;DHT22;13592;50.838;4.412;2023-03-14T02:43:58;11.90;99.90
25741;DHT22;13592;50.838;4.412;2023-03-14T02:46:42;12.00;99.90
25741;DHT22;13592;50.838;4.412;2023-03-14T02:49:14;11.80;99.90
25741;DHT22;13592;50.838;4.412;2023-03-14T02:51:45;11.80;99.90
25741;DHT22;13592;50.838;4.412;2023-03-14T02:57:32;11.70;99.90
25741;DHT22;13592;50.838;4.412;2023-03-14T02:59:58;11.80;99.90
25741;DHT22;13592;50.838;4.412;2023-03-14T03:05:09;11.80;99.90
25741;DHT22;13592;50.838;4.412;2023-03-14T03:07:36;11.90;99.90
25741;DHT22;13592;50.838;4.412;2023-03-14T03:10:04;11.80;99.90
25741;DHT22;13592;50.838;4.412;2023-03-14T03:15:37;12.00;99.90
25741;DHT22;13592;50.838;4.412;2023-03-14T03:18:27;12.10;99.90
25741;DHT22;13592;50.838;4.412;2023-03-14T03:21:11;11.90;99.90
25741;DHT22;13592;50.838;4.412;2023-03-14T03:24:00;12.10;99.90
25741;DHT22;13592;50.838;4.412;2023-03-14T03:26:42;12.00;99.90
25741;DHT22;13592;50.838;4.412;2023-03-14T03:29:09;12.00;99.90
25741;DHT22;13592;50.838;4.412;2023-03-14T03:31:36;12.00;99.90
25741;DHT22;13592;50.838;4.412;2023-03-14T03:37:21;11.90;99.90
25741;DHT22;13592;50.838;4.412;2023-03-14T03:40:05;12.00;99.90
25741;DHT22;13592;50.838;4.412;2023-03-14T03:42:32;12.00;99.90
25741;DHT22;13592;50.838;4.412;2023-03-14T03:45:28;12.00;99.90
25741;DHT22;13592;50.838;4.412;2023-03-14T03:48:14;12.00;99.90
25741;DHT22;13592;50.838;4.412;2023-03-14T03:59:12;12.00;99.90
25741;DHT22;13592;50.838;4.412;2023-03-14T04:01:44;12.00;99.90
25741;DHT22;13592;50.838;4.412;2023-03-14T04:04:13;12.00;99.90
25741;DHT22;13592;50.838;4.412;2023-03-14T04:51:39;12.30;99.90
25741;DHT22;13592;50.838;4.412;2023-03-14T04:54:52;12.20;99.90
25741;DHT22;13592;50.838;4.412;2023-03-14T04:57:23;12.10;99.90
25741;DHT22;13592;50.838;4.412;2023-03-14T05:27:34;12.20;99.90
25741;DHT22;13592;50.838;4.412;2023-03-14T05:30:07;12.20;99.90
25741;DHT22;13592;50.838;4.412;2023-03-14T05:35:28;12.30;99.90
25741;DHT22;13592;50.838;4.412;2023-03-14T05:38:09;12.20;99.90
25741;DHT22;13592;50.838;4.412;2023-03-14T05:40:47;12.10;99.90
25741;DHT22;13592;50.838;4.412;2023-03-14T06:21:25;12.00;99.90
25741;DHT22;13592;50.838;4.412;2023-03-14T06:23:53;11.90;99.90
25741;DHT22;13592;50.838;4.412;2023-03-14T06:26:25;11.90;99.90
25741;DHT22;13592;50.838;4.412;2023-03-14T06:28:52;11.80;99.90
25741;DHT22;13592;50.838;4.412;2023-03-14T06:34:49;11.90;99.90
25741;DHT22;13592;50.838;4.412;2023-03-14T06:37:29;11.80;99.90
25741;DHT22;13592;50.838;4.412;2023-03-14T06:40:01;11.90;99.90
25741;DHT22;13592;50.838;4.412;2023-03-14T06:42:33;12.00;99.90
25741;DHT22;13592;50.838;4.412;2023-03-14T06:45:09;11.80;99.90
25741;DHT22;13592;50.838;4.412;2023-03-14T06:47:43;11.80;99.90
25741;DHT22;13592;50.838;4.412;2023-03-14T06:50:18;11.80;99.90
25741;DHT22;13592;50.838;4.412;2023-03-14T06:52:55;11.80;99.90
25741;DHT22;13592;50.838;4.412;2023-03-14T06:55:23;11.70;99.90
25741;DHT22;13592;50.838;4.412;2023-03-14T06:57:50;11.60;99.90
25741;DHT22;13592;50.838;4.412;2023-03-14T07:00:24;11.40;99.90
25741;DHT22;13592;50.838;4.412;2023-03-14T07:03:00;11.40;99.90
25741;DHT22;13592;50.838;4.412;2023-03-14T07:05:36;11.40;99.90
25741;DHT22;13592;50.838;4.412;2023-03-14T07:08:19;11.30;99.90
25741;DHT22;13592;50.838;4.412;2023-03-14T07:16:35;10.70;99.90
25741;DHT22;13592;50.838;4.412;2023-03-14T11:45:51;8.20;99.90
25741;DHT22;13592;50.838;4.412;2023-03-14T11:52:08;8.10;99.90
25741;DHT22;13592;50.838;4.412;2023-03-14T11:57:51;7.80;99.90
25741;DHT22;13592;50.838;4.412;2023-03-14T12:46:38;8.00;99.90
25741;DHT22;13592;50.838;4.412;2023-03-14T12:49:22;8.00;99.90
25741;DHT22;13592;50.838;4.412;2023-03-14T12:52:31;8.20;99.90
25741;DHT22;13592;50.838;4.412;2023-03-14T13:32:41;8.30;99.90
25741;DHT22;13592;50.838;4.412;2023-03-14T14:18:59;8.90;99.90
25741;DHT22;13592;50.838;4.412;2023-03-14T16:03:21;8.80;99.90
25741;DHT22;13592;50.838;4.412;2023-03-14T16:05:57;8.60;99.90
25741;DHT22;13592;50.838;4.412;2023-03-14T16:14:19;8.60;99.90
25741;DHT22;13592;50.838;4.412;2023-03-14T16:25:07;8.70;99.90
25741;DHT22;13592;50.838;4.412;2023-03-14T16:27:33;8.50;99.90
25741;DHT22;13592;50.838;4.412;2023-03-14T16:30:01;8.60;99.90
25741;DHT22;13592;50.838;4.412;2023-03-14T16:32:30;8.50;99.90
25741;DHT22;13592;50.838;4.412;2023-03-14T16:38:12;8.60;99.90
25741;DHT22;13592;50.838;4.412;2023-03-14T16:43:37;8.70;99.90
25741;DHT22;13592;50.838;4.412;2023-03-14T16:46:10;8.60;99.90
25741;DHT22;13592;50.838;4.412;2023-03-14T16:48:45;8.60;99.90
25741;DHT22;13592;50.838;4.412;2023-03-14T16:54:12;8.60;99.90
25741;DHT22;13592;50.838;4.412;2023-03-14T16:56:42;8.60;99.90
25741;DHT22;13592;50.838;4.412;2023-03-14T16:59:13;8.60;99.90
25741;DHT22;13592;50.838;4.412;2023-03-14T17:01:57;8.50;99.90
25741;DHT22;13592;50.838;4.412;2023-03-14T17:04:22;8.40;99.90
25741;DHT22;13592;50.838;4.412;2023-03-14T17:06:53;8.50;99.90
25741;DHT22;13592;50.838;4.412;2023-03-14T17:09:18;8.60;99.90
25741;DHT22;13592;50.838;4.412;2023-03-14T17:11:46;8.60;99.90
25741;DHT22;13592;50.838;4.412;2023-03-14T17:14:12;8.50;99.90
25741;DHT22;13592;50.838;4.412;2023-03-14T17:28:32;8.40;99.90
25741;DHT22;13592;50.838;4.412;2023-03-14T17:31:04;8.20;99.90
25741;DHT22;13592;50.838;4.412;2023-03-14T17:33:37;8.30;99.90
25741;DHT22;13592;50.838;4.412;2023-03-14T17:36:06;8.30;99.90
25741;DHT22;13592;50.838;4.412;2023-03-14T17:38:46;8.30;99.90
25741;DHT22;13592;50.838;4.412;2023-03-14T17:41:43;8.30;99.90
25741;DHT22;13592;50.838;4.412;2023-03-14T17:47:38;8.50;99.90
25741;DHT22;13592;50.838;4.412;2023-03-14T17:50:04;8.50;99.90
25741;DHT22;13592;50.838;4.412;2023-03-14T18:01:20;8.50;99.90
25741;DHT22;13592;50.838;4.412;2023-03-14T18:04:21;8.40;99.90
25741;DHT22;13592;50.838;4.412;2023-03-14T18:14:37;8.30;99.90
25741;DHT22;13592;50.838;4.412;2023-03-14T18:29:19;8.40;99.90
25741;DHT22;13592;50.838;4.412;2023-03-14T18:35:07;8.40;99.90
25741;DHT22;13592;50.838;4.412;2023-03-14T18:40:44;8.50;99.90
25741;DHT22;13592;50.838;4.412;2023-03-14T18:45:43;8.20;99.90
25741;DHT22;13592;50.838;4.412;2023-03-14T18:51:16;8.10;99.90
25741;DHT22;13592;50.838;4.412;2023-03-14T18:53:54;8.20;99.90
25741;DHT22;13592;50.838;4.412;2023-03-14T18:59:17;8.10;99.90
25741;DHT22;13592;50.838;4.412;2023-03-14T19:01:47;8.10;99.90
25741;DHT22;13592;50.838;4.412;2023-03-14T19:04:21;8.10;99.90
25741;DHT22;13592;50.838;4.412;2023-03-14T19:06:56;8.20;99.90
25741;DHT22;13592;50.838;4.412;2023-03-14T19:09:29;8.20;99.90
25741;DHT22;13592;50.838;4.412;2023-03-14T19:12:19;8.10;99.90
25741;DHT22;13592;50.838;4.412;2023-03-14T19:17:59;8.00;99.90
25741;DHT22;13592;50.838;4.412;2023-03-14T19:20:29;8.00;99.90
25741;DHT22;13592;50.838;4.412;2023-03-14T19:22:54;8.10;99.90
25741;DHT22;13592;50.838;4.412;2023-03-14T19:25:25;8.00;99.90
25741;DHT22;13592;50.838;4.412;2023-03-14T19:44:19;7.90;99.90
25741;DHT22;13592;50.838;4.412;2023-03-14T19:47:15;7.80;99.90
25741;DHT22;13592;50.838;4.412;2023-03-14T19:52:47;7.60;99.90
25741;DHT22;13592;50.838;4.412;2023-03-14T19:55:24;7.50;99.90
25741;DHT22;13592;50.838;4.412;2023-03-14T19:57:53;7.30;99.90
25741;DHT22;13592;50.838;4.412;2023-03-14T20:00:26;7.50;99.90
25741;DHT22;13592;50.838;4.412;2023-03-14T20:03:00;7.50;99.90
25741;DHT22;13592;50.838;4.412;2023-03-14T20:05:27;7.60;99.90
25741;DHT22;13592;50.838;4.412;2023-03-14T20:08:00;7.60;99.90
25741;DHT22;13592;50.838;4.412;2023-03-14T20:13:23;7.70;99.90
25741;DHT22;13592;50.838;4.412;2023-03-14T20:15:52;7.70;99.90
25741;DHT22;13592;50.838;4.412;2023-03-14T20:18:22;7.40;99.90
25741;DHT22;13592;50.838;4.412;2023-03-14T20:20:55;7.40;99.90
25741;DHT22;13592;50.838;4.412;2023-03-14T20:23:34;7.30;99.90
25741;DHT22;13592;50.838;4.412;2023-03-14T20:26:00;7.40;99.90
25741;DHT22;13592;50.838;4.412;2023-03-14T20:28:31;7.40;99.90
25741;DHT22;13592;50.838;4.412;2023-03-14T20:31:13;7.40;99.90
25741;DHT22;13592;50.838;4.412;2023-03-14T20:41:58;7.50;99.90
25741;DHT22;13592;50.838;4.412;2023-03-14T20:53:10;7.30;99.90
25741;DHT22;13592;50.838;4.412;2023-03-14T20:55:44;7.00;99.90
25741;DHT22;13592;50.838;4.412;2023-03-14T21:01:37;6.90;99.90
25741;DHT22;13592;50.838;4.412;2023-03-14T21:07:21;6.70;99.90
25741;DHT22;13592;50.838;4.412;2023-03-14T21:09:56;6.80;99.90
25741;DHT22;13592;50.838;4.412;2023-03-14T21:12:30;6.90;99.90
25741;DHT22;13592;50.838;4.412;2023-03-14T21:15:02;6.90;99.90
25741;DHT22;13592;50.838;4.412;2023-03-14T21:17:28;7.00;99.90
25741;DHT22;13592;50.838;4.412;2023-03-14T21:20:07;6.90;99.90
25741;DHT22;13592;50.838;4.412;2023-03-14T21:22:33;6.80;99.90
25741;DHT22;13592;50.838;4.412;2023-03-14T21:27:48;7.00;99.90
25741;DHT22;13592;50.838;4.412;2023-03-14T21:30:14;6.90;99.90
25741;DHT22;13592;50.838;4.412;2023-03-14T21:32:46;6.90;99.90
25741;DHT22;13592;50.838;4.412;2023-03-14T21:35:12;6.80;99.90
25741;DHT22;13592;50.838;4.412;2023-03-14T21:37:38;6.60;99.90
25741;DHT22;13592;50.838;4.412;2023-03-14T21:42:39;6.70;99.90
25741;DHT22;13592;50.838;4.412;2023-03-14T21:45:05;6.70;99.90
25741;DHT22;13592;50.838;4.412;2023-03-14T21:49:59;7.00;99.90
25741;DHT22;13592;50.838;4.412;2023-03-14T21:52:27;6.90;99.90
25741;DHT22;13592;50.838;4.412;2023-03-14T21:54:57;7.10;99.90
25741;DHT22;13592;50.838;4.412;2023-03-14T21:57:23;7.00;99.90
25741;DHT22;13592;50.838;4.412;2023-03-14T21:59:55;6.90;99.90
25741;DHT22;13592;50.838;4.412;2023-03-14T22:02:26;6.90;99.90
25741;DHT22;13592;50.838;4.412;2023-03-14T22:04:57;6.80;99.90
25741;DHT22;13592;50.838;4.412;2023-03-14T22:07:28;6.80;99.90
25741;DHT22;13592;50.838;4.412;2023-03-14T22:09:56;7.00;99.90
25741;DHT22;13592;50.838;4.412;2023-03-14T22:12:23;7.00;99.90
25741;DHT22;13592;50.838;4.412;2023-03-14T22:14:50;6.90;99.90
25741;DHT22;13592;50.838;4.412;2023-03-14T22:17:18;6.90;99.90
25741;DHT22;13592;50.838;4.412;2023-03-14T22:20:02;7.00;99.90
25741;DHT22;13592;50.838;4.412;2023-03-14T22:22:31;6.80;99.90
25741;DHT22;13592;50.838;4.412;2023-03-14T22:24:59;6.70;99.90
25741;DHT22;13592;50.838;4.412;2023-03-14T22:27:30;6.60;99.90
25741;DHT22;13592;50.838;4.412;2023-03-14T22:29:57;6.90;99.90
25741;DHT22;13592;50.838;4.412;2023-03-14T22:32:22;7.20;99.90
25741;DHT22;13592;50.838;4.412;2023-03-14T22:35:02;7.20;99.90
25741;DHT22;13592;50.838;4.412;2023-03-14T22:37:38;7.20;99.90
25741;DHT22;13592;50.838;4.412;2023-03-14T22:40:07;7.40;99.90
25741;DHT22;13592;50.838;4.412;2023-03-14T22:42:41;7.20;99.90
25741;DHT22;13592;50.838;4.412;2023-03-14T22:45:08;7.10;99.90
25741;DHT22;13592;50.838;4.412;2023-03-14T22:50:12;7.00;99.90
25741;DHT22;13592;50.838;4.412;2023-03-14T22:52:41;6.90;99.90
25741;DHT22;13592;50.838;4.412;2023-03-14T22:55:07;6.90;99.90
25741;DHT22;13592;50.838;4.412;2023-03-14T22:57:32;7.00;99.90
25741;DHT22;13592;50.838;4.412;2023-03-14T23:00:05;7.10;99.90
25741;DHT22;13592;50.838;4.412;2023-03-14T23:02:37;7.40;99.90
25741;DHT22;13592;50.838;4.412;2023-03-14T23:07:49;7.30;99.90
25741;DHT22;13592;50.838;4.412;2023-03-14T23:10:32;7.00;99.90
25741;DHT22;13592;50.838;4.412;2023-03-14T23:13:04;7.00;99.90
25741;DHT22;13592;50.838;4.412;2023-03-14T23:15:43;6.90;99.90
25741;DHT22;13592;50.838;4.412;2023-03-14T23:18:18;7.30;99.90
25741;DHT22;13592;50.838;4.412;2023-03-14T23:20:47;7.50;99.90
25741;DHT22;13592;50.838;4.412;2023-03-14T23:23:16;7.30;99.90
25741;DHT22;13592;50.838;4.412;2023-03-14T23:25:55;7.30;99.90
25741;DHT22;13592;50.838;4.412;2023-03-14T23:31:37;7.10;99.90
25741;DHT22;13592;50.838;4.412;2023-03-14T23:37:18;7.10;99.90
25741;DHT22;13592;50.838;4.412;2023-03-14T23:39:57;7.10;99.90
25741;DHT22;13592;50.838;4.412;2023-03-14T23:42:24;7.20;99.90
25741;DHT22;13592;50.838;4.412;2023-03-14T23:47:32;7.20;99.90
25741;DHT22;13592;50.838;4.412;2023-03-14T23:50:08;7.30;99.90
25741;DHT22;13592;50.838;4.412;2023-03-14T23:52:54;7.20;99.90
25741;DHT22;13592;50.838;4.412;2023-03-14T23:58:08;7.20;99.90
